sensor_id;sensor_type;location;lat;lon;timestamp;P1;durP1;ratioP1;P2;durP2;ratioP2
44476;SDS011;30180;44.788;10.366;2024-03-22T00:00:00;7.03;;;3.80;;
44476;SDS011;30180;44.788;10.366;2024-03-22T00:02:27;6.15;;;3.53;;
44476;SDS011;30180;44.788;10.366;2024-03-22T00:04:56;6.30;;;3.80;;
44476;SDS011;30180;44.788;10.366;2024-03-22T00:07:22;5.78;;;3.50;;
44476;SDS011;30180;44.788;10.366;2024-03-22T00:09:50;5.63;;;3.60;;
44476;SDS011;30180;44.788;10.366;2024-03-22T00:12:16;6.20;;;3.67;;
44476;SDS011;30180;44.788;10.366;2024-03-22T00:14:44;6.82;;;3.55;;
44476;SDS011;30180;44.788;10.366;2024-03-22T00:17:10;5.72;;;3.38;;
44476;SDS011;30180;44.788;10.366;2024-03-22T00:19:38;6.60;;;3.58;;
44476;SDS011;30180;44.788;10.366;2024-03-22T00:22:06;7.63;;;4.05;;
44476;SDS011;30180;44.788;10.366;2024-03-22T00:24:33;5.80;;;3.65;;
44476;SDS011;30180;44.788;10.366;2024-03-22T00:26:59;6.68;;;3.92;;
44476;SDS011;30180;44.788;10.366;2024-03-22T00:29:27;6.72;;;3.75;;
44476;SDS011;30180;44.788;10.366;2024-03-22T00:31:53;6.00;;;3.45;;
44476;SDS011;30180;44.788;10.366;2024-03-22T00:34:21;6.13;;;3.60;;
44476;SDS011;30180;44.788;10.366;2024-03-22T00:36:47;7.40;;;3.85;;
44476;SDS011;30180;44.788;10.366;2024-03-22T00:39:18;6.35;;;3.65;;
44476;SDS011;30180;44.788;10.366;2024-03-22T00:41:44;7.45;;;3.63;;
44476;SDS011;30180;44.788;10.366;2024-03-22T00:44:12;7.70;;;3.92;;
44476;SDS011;30180;44.788;10.366;2024-03-22T00:46:38;6.95;;;3.72;;
44476;SDS011;30180;44.788;10.366;2024-03-22T00:49:06;7.72;;;3.78;;
44476;SDS011;30180;44.788;10.366;2024-03-22T00:51:32;5.85;;;3.55;;
44476;SDS011;30180;44.788;10.366;2024-03-22T00:54:00;6.05;;;3.80;;
44476;SDS011;30180;44.788;10.366;2024-03-22T00:56:27;6.22;;;3.65;;
44476;SDS011;30180;44.788;10.366;2024-03-22T00:58:55;5.78;;;3.50;;
44476;SDS011;30180;44.788;10.366;2024-03-22T01:01:21;5.63;;;3.22;;
44476;SDS011;30180;44.788;10.366;2024-03-22T01:03:49;6.55;;;3.50;;
44476;SDS011;30180;44.788;10.366;2024-03-22T01:06:15;5.70;;;3.78;;
44476;SDS011;30180;44.788;10.366;2024-03-22T01:08:48;6.45;;;3.90;;
44476;SDS011;30180;44.788;10.366;2024-03-22T01:11:15;6.93;;;3.97;;
44476;SDS011;30180;44.788;10.366;2024-03-22T01:13:44;5.53;;;3.40;;
44476;SDS011;30180;44.788;10.366;2024-03-22T01:16:10;5.32;;;3.42;;
44476;SDS011;30180;44.788;10.366;2024-03-22T01:18:37;7.15;;;3.95;;
44476;SDS011;30180;44.788;10.366;2024-03-22T01:21:04;7.20;;;3.70;;
44476;SDS011;30180;44.788;10.366;2024-03-22T01:23:32;6.88;;;3.60;;
44476;SDS011;30180;44.788;10.366;2024-03-22T01:25:59;5.57;;;3.38;;
44476;SDS011;30180;44.788;10.366;2024-03-22T01:28:26;6.97;;;4.25;;
44476;SDS011;30180;44.788;10.366;2024-03-22T01:30:54;7.32;;;3.80;;
44476;SDS011;30180;44.788;10.366;2024-03-22T01:33:21;7.10;;;3.80;;
44476;SDS011;30180;44.788;10.366;2024-03-22T01:35:48;7.07;;;4.20;;
44476;SDS011;30180;44.788;10.366;2024-03-22T01:38:15;7.40;;;3.95;;
44476;SDS011;30180;44.788;10.366;2024-03-22T01:40:42;6.25;;;3.95;;
44476;SDS011;30180;44.788;10.366;2024-03-22T01:43:09;6.03;;;3.85;;
44476;SDS011;30180;44.788;10.366;2024-03-22T01:45:36;6.53;;;3.53;;
44476;SDS011;30180;44.788;10.366;2024-03-22T01:48:05;6.72;;;3.55;;
44476;SDS011;30180;44.788;10.366;2024-03-22T01:50:33;7.97;;;4.10;;
44476;SDS011;30180;44.788;10.366;2024-03-22T01:53:01;5.28;;;3.35;;
44476;SDS011;30180;44.788;10.366;2024-03-22T01:55:27;6.40;;;3.70;;
44476;SDS011;30180;44.788;10.366;2024-03-22T01:57:55;5.53;;;3.67;;
44476;SDS011;30180;44.788;10.366;2024-03-22T02:00:22;6.25;;;3.60;;
44476;SDS011;30180;44.788;10.366;2024-03-22T02:02:50;6.68;;;4.35;;
44476;SDS011;30180;44.788;10.366;2024-03-22T02:05:17;5.65;;;3.80;;
44476;SDS011;30180;44.788;10.366;2024-03-22T02:07:46;6.40;;;3.75;;
44476;SDS011;30180;44.788;10.366;2024-03-22T02:10:12;6.22;;;3.63;;
44476;SDS011;30180;44.788;10.366;2024-03-22T02:12:41;5.55;;;3.60;;
44476;SDS011;30180;44.788;10.366;2024-03-22T02:15:08;6.13;;;3.45;;
44476;SDS011;30180;44.788;10.366;2024-03-22T02:17:36;5.80;;;3.50;;
44476;SDS011;30180;44.788;10.366;2024-03-22T02:20:03;7.63;;;4.03;;
44476;SDS011;30180;44.788;10.366;2024-03-22T02:22:33;6.70;;;3.92;;
44476;SDS011;30180;44.788;10.366;2024-03-22T02:25:00;7.10;;;3.63;;
44476;SDS011;30180;44.788;10.366;2024-03-22T02:27:28;6.45;;;3.80;;
44476;SDS011;30180;44.788;10.366;2024-03-22T02:29:54;6.68;;;4.25;;
44476;SDS011;30180;44.788;10.366;2024-03-22T02:32:23;6.78;;;3.58;;
44476;SDS011;30180;44.788;10.366;2024-03-22T02:34:49;6.15;;;3.88;;
44476;SDS011;30180;44.788;10.366;2024-03-22T02:37:16;7.38;;;3.90;;
44476;SDS011;30180;44.788;10.366;2024-03-22T02:39:43;6.00;;;3.60;;
44476;SDS011;30180;44.788;10.366;2024-03-22T02:42:12;6.15;;;3.90;;
44476;SDS011;30180;44.788;10.366;2024-03-22T02:44:38;7.60;;;4.00;;
44476;SDS011;30180;44.788;10.366;2024-03-22T02:47:08;6.35;;;3.60;;
44476;SDS011;30180;44.788;10.366;2024-03-22T02:49:35;6.43;;;3.97;;
44476;SDS011;30180;44.788;10.366;2024-03-22T02:52:02;6.43;;;3.55;;
44476;SDS011;30180;44.788;10.366;2024-03-22T02:54:29;6.40;;;3.72;;
44476;SDS011;30180;44.788;10.366;2024-03-22T02:56:57;6.57;;;3.97;;
44476;SDS011;30180;44.788;10.366;2024-03-22T02:59:26;5.70;;;3.42;;
44476;SDS011;30180;44.788;10.366;2024-03-22T03:01:54;5.32;;;3.55;;
44476;SDS011;30180;44.788;10.366;2024-03-22T03:04:20;6.22;;;3.85;;
44476;SDS011;30180;44.788;10.366;2024-03-22T03:06:48;5.88;;;3.70;;
44476;SDS011;30180;44.788;10.366;2024-03-22T03:09:14;6.30;;;3.72;;
44476;SDS011;30180;44.788;10.366;2024-03-22T03:11:42;5.93;;;3.50;;
44476;SDS011;30180;44.788;10.366;2024-03-22T03:14:08;6.38;;;4.03;;
44476;SDS011;30180;44.788;10.366;2024-03-22T03:16:37;5.57;;;3.67;;
44476;SDS011;30180;44.788;10.366;2024-03-22T03:19:04;7.15;;;3.75;;
44476;SDS011;30180;44.788;10.366;2024-03-22T03:21:31;4.88;;;2.92;;
44476;SDS011;30180;44.788;10.366;2024-03-22T03:23:59;4.50;;;3.05;;
44476;SDS011;30180;44.788;10.366;2024-03-22T03:26:25;5.97;;;3.60;;
44476;SDS011;30180;44.788;10.366;2024-03-22T03:28:53;6.13;;;3.80;;
44476;SDS011;30180;44.788;10.366;2024-03-22T03:31:20;5.65;;;3.28;;
44476;SDS011;30180;44.788;10.366;2024-03-22T03:33:49;5.70;;;3.25;;
44476;SDS011;30180;44.788;10.366;2024-03-22T03:36:16;7.38;;;3.90;;
44476;SDS011;30180;44.788;10.366;2024-03-22T03:38:43;5.45;;;3.40;;
44476;SDS011;30180;44.788;10.366;2024-03-22T03:41:10;6.40;;;3.45;;
44476;SDS011;30180;44.788;10.366;2024-03-22T03:43:37;6.53;;;3.60;;
44476;SDS011;30180;44.788;10.366;2024-03-22T03:46:04;6.47;;;3.55;;
44476;SDS011;30180;44.788;10.366;2024-03-22T03:48:31;5.28;;;3.10;;
44476;SDS011;30180;44.788;10.366;2024-03-22T03:50:59;5.70;;;3.25;;
44476;SDS011;30180;44.788;10.366;2024-03-22T03:53:28;5.67;;;3.20;;
44476;SDS011;30180;44.788;10.366;2024-03-22T03:55:55;5.57;;;3.60;;
44476;SDS011;30180;44.788;10.366;2024-03-22T03:58:22;5.20;;;3.22;;
44476;SDS011;30180;44.788;10.366;2024-03-22T04:00:49;6.45;;;3.70;;
44476;SDS011;30180;44.788;10.366;2024-03-22T04:03:17;5.70;;;3.80;;
44476;SDS011;30180;44.788;10.366;2024-03-22T04:05:43;6.10;;;3.40;;
44476;SDS011;30180;44.788;10.366;2024-03-22T04:08:12;5.82;;;3.65;;
44476;SDS011;30180;44.788;10.366;2024-03-22T04:10:39;5.80;;;3.60;;
44476;SDS011;30180;44.788;10.366;2024-03-22T04:13:06;6.97;;;3.47;;
44476;SDS011;30180;44.788;10.366;2024-03-22T04:15:34;5.90;;;3.42;;
44476;SDS011;30180;44.788;10.366;2024-03-22T04:18:02;5.55;;;3.67;;
44476;SDS011;30180;44.788;10.366;2024-03-22T04:20:28;4.72;;;3.25;;
44476;SDS011;30180;44.788;10.366;2024-03-22T04:22:56;4.60;;;3.35;;
44476;SDS011;30180;44.788;10.366;2024-03-22T04:25:24;6.38;;;3.53;;
44476;SDS011;30180;44.788;10.366;2024-03-22T04:27:51;5.88;;;3.60;;
44476;SDS011;30180;44.788;10.366;2024-03-22T04:30:18;5.63;;;3.45;;
44476;SDS011;30180;44.788;10.366;2024-03-22T04:32:45;5.25;;;3.15;;
44476;SDS011;30180;44.788;10.366;2024-03-22T04:35:14;5.00;;;3.22;;
44476;SDS011;30180;44.788;10.366;2024-03-22T04:37:42;5.28;;;3.25;;
44476;SDS011;30180;44.788;10.366;2024-03-22T04:40:10;7.20;;;3.47;;
44476;SDS011;30180;44.788;10.366;2024-03-22T04:42:40;4.72;;;3.05;;
44476;SDS011;30180;44.788;10.366;2024-03-22T04:45:07;4.80;;;2.97;;
44476;SDS011;30180;44.788;10.366;2024-03-22T04:47:34;4.47;;;3.15;;
44476;SDS011;30180;44.788;10.366;2024-03-22T04:50:03;5.05;;;3.15;;
44476;SDS011;30180;44.788;10.366;2024-03-22T04:52:30;5.00;;;3.22;;
44476;SDS011;30180;44.788;10.366;2024-03-22T04:54:58;6.00;;;3.55;;
44476;SDS011;30180;44.788;10.366;2024-03-22T04:57:24;5.20;;;2.80;;
44476;SDS011;30180;44.788;10.366;2024-03-22T04:59:53;6.18;;;3.42;;
44476;SDS011;30180;44.788;10.366;2024-03-22T05:02:19;4.38;;;2.83;;
44476;SDS011;30180;44.788;10.366;2024-03-22T05:04:48;4.70;;;2.80;;
44476;SDS011;30180;44.788;10.366;2024-03-22T05:07:15;5.22;;;3.22;;
44476;SDS011;30180;44.788;10.366;2024-03-22T05:09:42;5.80;;;3.42;;
44476;SDS011;30180;44.788;10.366;2024-03-22T05:12:09;4.97;;;3.08;;
44476;SDS011;30180;44.788;10.366;2024-03-22T05:14:36;5.57;;;3.22;;
44476;SDS011;30180;44.788;10.366;2024-03-22T05:17:04;5.25;;;3.15;;
44476;SDS011;30180;44.788;10.366;2024-03-22T05:19:32;4.70;;;3.08;;
44476;SDS011;30180;44.788;10.366;2024-03-22T05:21:58;4.57;;;2.85;;
44476;SDS011;30180;44.788;10.366;2024-03-22T05:24:26;6.13;;;3.22;;
44476;SDS011;30180;44.788;10.366;2024-03-22T05:26:53;5.30;;;3.20;;
44476;SDS011;30180;44.788;10.366;2024-03-22T05:29:21;4.65;;;3.08;;
44476;SDS011;30180;44.788;10.366;2024-03-22T05:31:48;4.80;;;3.03;;
44476;SDS011;30180;44.788;10.366;2024-03-22T05:34:18;5.32;;;3.28;;
44476;SDS011;30180;44.788;10.366;2024-03-22T05:36:45;5.07;;;3.00;;
44476;SDS011;30180;44.788;10.366;2024-03-22T05:39:13;5.75;;;3.60;;
44476;SDS011;30180;44.788;10.366;2024-03-22T05:41:40;5.00;;;3.35;;
44476;SDS011;30180;44.788;10.366;2024-03-22T05:44:08;4.40;;;2.83;;
44476;SDS011;30180;44.788;10.366;2024-03-22T05:46:35;5.57;;;3.20;;
44476;SDS011;30180;44.788;10.366;2024-03-22T05:49:02;5.45;;;3.45;;
44476;SDS011;30180;44.788;10.366;2024-03-22T05:51:30;4.18;;;3.10;;
44476;SDS011;30180;44.788;10.366;2024-03-22T05:53:58;4.45;;;2.72;;
44476;SDS011;30180;44.788;10.366;2024-03-22T05:56:25;4.65;;;3.13;;
44476;SDS011;30180;44.788;10.366;2024-03-22T05:58:52;5.63;;;3.60;;
44476;SDS011;30180;44.788;10.366;2024-03-22T06:01:19;4.90;;;3.08;;
44476;SDS011;30180;44.788;10.366;2024-03-22T06:03:46;5.10;;;3.20;;
44476;SDS011;30180;44.788;10.366;2024-03-22T06:06:13;4.70;;;3.10;;
44476;SDS011;30180;44.788;10.366;2024-03-22T06:08:43;4.13;;;2.50;;
44476;SDS011;30180;44.788;10.366;2024-03-22T06:11:10;4.45;;;2.85;;
44476;SDS011;30180;44.788;10.366;2024-03-22T06:13:38;5.30;;;3.47;;
44476;SDS011;30180;44.788;10.366;2024-03-22T06:16:05;4.95;;;2.95;;
44476;SDS011;30180;44.788;10.366;2024-03-22T06:18:33;5.47;;;3.40;;
44476;SDS011;30180;44.788;10.366;2024-03-22T06:20:59;4.50;;;2.55;;
44476;SDS011;30180;44.788;10.366;2024-03-22T06:23:28;5.57;;;3.60;;
44476;SDS011;30180;44.788;10.366;2024-03-22T06:25:56;5.05;;;3.08;;
44476;SDS011;30180;44.788;10.366;2024-03-22T06:28:26;4.30;;;3.00;;
44476;SDS011;30180;44.788;10.366;2024-03-22T06:30:53;5.38;;;3.17;;
44476;SDS011;30180;44.788;10.366;2024-03-22T06:33:21;5.05;;;2.80;;
44476;SDS011;30180;44.788;10.366;2024-03-22T06:35:47;4.97;;;3.10;;
44476;SDS011;30180;44.788;10.366;2024-03-22T06:38:15;5.68;;;3.25;;
44476;SDS011;30180;44.788;10.366;2024-03-22T06:40:43;5.43;;;3.17;;
44476;SDS011;30180;44.788;10.366;2024-03-22T06:43:12;4.72;;;2.80;;
44476;SDS011;30180;44.788;10.366;2024-03-22T06:45:40;5.70;;;3.20;;
44476;SDS011;30180;44.788;10.366;2024-03-22T06:48:06;4.90;;;3.10;;
44476;SDS011;30180;44.788;10.366;2024-03-22T06:50:34;5.18;;;3.00;;
44476;SDS011;30180;44.788;10.366;2024-03-22T06:53:01;4.80;;;3.10;;
44476;SDS011;30180;44.788;10.366;2024-03-22T06:55:29;5.40;;;3.03;;
44476;SDS011;30180;44.788;10.366;2024-03-22T06:57:55;4.53;;;2.85;;
44476;SDS011;30180;44.788;10.366;2024-03-22T07:00:25;4.80;;;3.00;;
44476;SDS011;30180;44.788;10.366;2024-03-22T07:02:51;4.60;;;3.10;;
44476;SDS011;30180;44.788;10.366;2024-03-22T07:05:21;6.22;;;3.40;;
44476;SDS011;30180;44.788;10.366;2024-03-22T07:07:47;5.03;;;3.10;;
44476;SDS011;30180;44.788;10.366;2024-03-22T07:10:16;4.80;;;3.15;;
44476;SDS011;30180;44.788;10.366;2024-03-22T07:12:43;8.00;;;3.72;;
44476;SDS011;30180;44.788;10.366;2024-03-22T07:15:10;6.90;;;3.15;;
44476;SDS011;30180;44.788;10.366;2024-03-22T07:17:38;7.13;;;3.60;;
44476;SDS011;30180;44.788;10.366;2024-03-22T07:20:06;14.48;;;3.83;;
44476;SDS011;30180;44.788;10.366;2024-03-22T07:22:33;11.40;;;4.93;;
44476;SDS011;30180;44.788;10.366;2024-03-22T07:25:00;9.18;;;4.28;;
44476;SDS011;30180;44.788;10.366;2024-03-22T07:27:27;7.40;;;4.10;;
44476;SDS011;30180;44.788;10.366;2024-03-22T07:29:56;9.18;;;4.45;;
44476;SDS011;30180;44.788;10.366;2024-03-22T07:32:23;10.35;;;4.25;;
44476;SDS011;30180;44.788;10.366;2024-03-22T07:34:52;9.50;;;4.07;;
44476;SDS011;30180;44.788;10.366;2024-03-22T07:37:18;8.57;;;4.43;;
44476;SDS011;30180;44.788;10.366;2024-03-22T07:39:46;8.88;;;3.70;;
44476;SDS011;30180;44.788;10.366;2024-03-22T07:42:12;7.65;;;3.92;;
44476;SDS011;30180;44.788;10.366;2024-03-22T07:44:40;5.72;;;3.70;;
44476;SDS011;30180;44.788;10.366;2024-03-22T07:47:06;6.95;;;3.67;;
44476;SDS011;30180;44.788;10.366;2024-03-22T07:49:34;10.10;;;3.88;;
44476;SDS011;30180;44.788;10.366;2024-03-22T07:52:03;8.68;;;3.95;;
44476;SDS011;30180;44.788;10.366;2024-03-22T07:54:31;9.48;;;4.05;;
44476;SDS011;30180;44.788;10.366;2024-03-22T07:56:58;10.45;;;3.47;;
44476;SDS011;30180;44.788;10.366;2024-03-22T07:59:25;8.02;;;3.80;;
44476;SDS011;30180;44.788;10.366;2024-03-22T08:01:52;13.98;;;3.88;;
44476;SDS011;30180;44.788;10.366;2024-03-22T08:04:20;5.80;;;3.55;;
44476;SDS011;30180;44.788;10.366;2024-03-22T08:06:46;9.48;;;4.03;;
44476;SDS011;30180;44.788;10.366;2024-03-22T08:09:15;11.00;;;3.58;;
44476;SDS011;30180;44.788;10.366;2024-03-22T08:11:43;8.35;;;3.72;;
44476;SDS011;30180;44.788;10.366;2024-03-22T08:14:10;8.60;;;3.50;;
44476;SDS011;30180;44.788;10.366;2024-03-22T08:16:37;6.25;;;3.75;;
44476;SDS011;30180;44.788;10.366;2024-03-22T08:19:04;9.05;;;3.90;;
44476;SDS011;30180;44.788;10.366;2024-03-22T08:21:31;6.78;;;3.90;;
44476;SDS011;30180;44.788;10.366;2024-03-22T08:23:59;6.78;;;3.40;;
44476;SDS011;30180;44.788;10.366;2024-03-22T08:26:27;6.13;;;3.47;;
44476;SDS011;30180;44.788;10.366;2024-03-22T08:28:55;7.43;;;3.58;;
44476;SDS011;30180;44.788;10.366;2024-03-22T08:31:21;10.10;;;4.07;;
44476;SDS011;30180;44.788;10.366;2024-03-22T08:33:51;8.23;;;3.83;;
44476;SDS011;30180;44.788;10.366;2024-03-22T08:36:17;9.85;;;3.95;;
44476;SDS011;30180;44.788;10.366;2024-03-22T08:38:45;13.32;;;3.85;;
44476;SDS011;30180;44.788;10.366;2024-03-22T08:41:11;10.98;;;3.80;;
44476;SDS011;30180;44.788;10.366;2024-03-22T08:43:40;15.32;;;3.88;;
44476;SDS011;30180;44.788;10.366;2024-03-22T08:46:07;7.15;;;3.22;;
44476;SDS011;30180;44.788;10.366;2024-03-22T08:48:35;11.88;;;3.72;;
44476;SDS011;30180;44.788;10.366;2024-03-22T08:51:01;10.57;;;3.53;;
44476;SDS011;30180;44.788;10.366;2024-03-22T08:53:29;5.57;;;3.50;;
44476;SDS011;30180;44.788;10.366;2024-03-22T08:55:55;8.60;;;3.42;;
44476;SDS011;30180;44.788;10.366;2024-03-22T08:58:23;12.13;;;4.13;;
44476;SDS011;30180;44.788;10.366;2024-03-22T09:00:51;7.80;;;3.45;;
44476;SDS011;30180;44.788;10.366;2024-03-22T09:03:19;7.15;;;3.22;;
44476;SDS011;30180;44.788;10.366;2024-03-22T09:05:47;13.55;;;3.78;;
44476;SDS011;30180;44.788;10.366;2024-03-22T09:08:14;12.32;;;3.47;;
44476;SDS011;30180;44.788;10.366;2024-03-22T09:10:41;9.40;;;3.33;;
44476;SDS011;30180;44.788;10.366;2024-03-22T09:13:09;11.02;;;3.60;;
44476;SDS011;30180;44.788;10.366;2024-03-22T09:15:38;8.80;;;4.00;;
44476;SDS011;30180;44.788;10.366;2024-03-22T09:18:06;9.35;;;3.80;;
44476;SDS011;30180;44.788;10.366;2024-03-22T09:20:33;11.02;;;3.70;;
44476;SDS011;30180;44.788;10.366;2024-03-22T09:23:01;10.85;;;3.70;;
44476;SDS011;30180;44.788;10.366;2024-03-22T09:25:27;6.63;;;3.55;;
44476;SDS011;30180;44.788;10.366;2024-03-22T09:27:55;14.23;;;3.95;;
44476;SDS011;30180;44.788;10.366;2024-03-22T09:30:21;6.60;;;3.40;;
44476;SDS011;30180;44.788;10.366;2024-03-22T09:32:49;8.43;;;3.72;;
44476;SDS011;30180;44.788;10.366;2024-03-22T09:35:19;8.35;;;3.30;;
44476;SDS011;30180;44.788;10.366;2024-03-22T09:37:46;8.95;;;3.75;;
44476;SDS011;30180;44.788;10.366;2024-03-22T09:40:13;9.93;;;3.33;;
44476;SDS011;30180;44.788;10.366;2024-03-22T09:42:41;10.70;;;3.55;;
44476;SDS011;30180;44.788;10.366;2024-03-22T09:45:08;11.73;;;3.67;;
44476;SDS011;30180;44.788;10.366;2024-03-22T09:47:37;4.47;;;3.08;;
44476;SDS011;30180;44.788;10.366;2024-03-22T09:50:04;8.75;;;3.13;;
44476;SDS011;30180;44.788;10.366;2024-03-22T09:52:35;7.97;;;3.40;;
44476;SDS011;30180;44.788;10.366;2024-03-22T09:55:04;7.43;;;3.33;;
44476;SDS011;30180;44.788;10.366;2024-03-22T09:57:33;6.47;;;3.13;;
44476;SDS011;30180;44.788;10.366;2024-03-22T10:00:03;8.40;;;3.55;;
44476;SDS011;30180;44.788;10.366;2024-03-22T10:05:00;7.80;;;3.25;;
44476;SDS011;30180;44.788;10.366;2024-03-22T10:07:28;6.50;;;3.10;;
44476;SDS011;30180;44.788;10.366;2024-03-22T10:09:58;11.13;;;3.85;;
44476;SDS011;30180;44.788;10.366;2024-03-22T10:12:26;6.05;;;3.40;;
44476;SDS011;30180;44.788;10.366;2024-03-22T10:14:52;5.82;;;3.30;;
44476;SDS011;30180;44.788;10.366;2024-03-22T10:17:20;10.65;;;3.00;;
44476;SDS011;30180;44.788;10.366;2024-03-22T10:19:48;7.75;;;3.75;;
44476;SDS011;30180;44.788;10.366;2024-03-22T10:22:17;5.30;;;3.10;;
44476;SDS011;30180;44.788;10.366;2024-03-22T10:24:43;7.28;;;3.38;;
44476;SDS011;30180;44.788;10.366;2024-03-22T10:27:13;10.25;;;5.85;;
44476;SDS011;30180;44.788;10.366;2024-03-22T10:29:39;17.23;;;9.50;;
44476;SDS011;30180;44.788;10.366;2024-03-22T10:32:07;30.58;;;16.77;;
44476;SDS011;30180;44.788;10.366;2024-03-22T10:34:35;28.98;;;14.15;;
44476;SDS011;30180;44.788;10.366;2024-03-22T10:37:04;19.85;;;10.20;;
44476;SDS011;30180;44.788;10.366;2024-03-22T10:39:34;22.17;;;9.68;;
44476;SDS011;30180;44.788;10.366;2024-03-22T10:42:01;18.23;;;8.80;;
44476;SDS011;30180;44.788;10.366;2024-03-22T10:44:29;19.30;;;8.88;;
44476;SDS011;30180;44.788;10.366;2024-03-22T10:46:57;13.40;;;8.32;;
44476;SDS011;30180;44.788;10.366;2024-03-22T10:49:30;14.02;;;7.85;;
44476;SDS011;30180;44.788;10.366;2024-03-22T10:52:01;13.13;;;7.38;;
44476;SDS011;30180;44.788;10.366;2024-03-22T10:54:30;12.27;;;7.15;;
44476;SDS011;30180;44.788;10.366;2024-03-22T10:57:01;14.88;;;7.28;;
44476;SDS011;30180;44.788;10.366;2024-03-22T10:59:34;10.65;;;6.75;;
44476;SDS011;30180;44.788;10.366;2024-03-22T11:02:04;11.63;;;6.90;;
44476;SDS011;30180;44.788;10.366;2024-03-22T11:04:32;12.40;;;7.15;;
44476;SDS011;30180;44.788;10.366;2024-03-22T11:07:00;10.73;;;6.13;;
44476;SDS011;30180;44.788;10.366;2024-03-22T11:09:29;12.27;;;6.25;;
44476;SDS011;30180;44.788;10.366;2024-03-22T11:11:56;12.27;;;6.22;;
44476;SDS011;30180;44.788;10.366;2024-03-22T11:14:24;13.48;;;6.75;;
44476;SDS011;30180;44.788;10.366;2024-03-22T11:16:53;12.77;;;6.05;;
44476;SDS011;30180;44.788;10.366;2024-03-22T11:19:20;10.90;;;5.78;;
44476;SDS011;30180;44.788;10.366;2024-03-22T11:21:47;11.63;;;5.63;;
44476;SDS011;30180;44.788;10.366;2024-03-22T11:24:15;8.38;;;5.65;;
44476;SDS011;30180;44.788;10.366;2024-03-22T11:26:42;13.88;;;5.90;;
44476;SDS011;30180;44.788;10.366;2024-03-22T11:29:09;9.48;;;5.30;;
44476;SDS011;30180;44.788;10.366;2024-03-22T11:31:37;17.25;;;6.05;;
44476;SDS011;30180;44.788;10.366;2024-03-22T11:34:05;10.52;;;5.32;;
44476;SDS011;30180;44.788;10.366;2024-03-22T11:36:33;9.75;;;5.40;;
44476;SDS011;30180;44.788;10.366;2024-03-22T11:39:01;8.57;;;5.18;;
44476;SDS011;30180;44.788;10.366;2024-03-22T11:41:29;9.85;;;5.38;;
44476;SDS011;30180;44.788;10.366;2024-03-22T11:43:56;10.98;;;5.22;;
44476;SDS011;30180;44.788;10.366;2024-03-22T11:46:26;10.40;;;5.15;;
44476;SDS011;30180;44.788;10.366;2024-03-22T11:48:53;9.75;;;5.20;;
44476;SDS011;30180;44.788;10.366;2024-03-22T11:51:23;11.52;;;5.18;;
44476;SDS011;30180;44.788;10.366;2024-03-22T11:53:50;12.43;;;6.13;;
44476;SDS011;30180;44.788;10.366;2024-03-22T11:56:19;13.35;;;6.03;;
44476;SDS011;30180;44.788;10.366;2024-03-22T11:58:47;9.45;;;5.40;;
44476;SDS011;30180;44.788;10.366;2024-03-22T12:01:15;12.40;;;5.47;;
44476;SDS011;30180;44.788;10.366;2024-03-22T12:03:46;11.07;;;5.50;;
44476;SDS011;30180;44.788;10.366;2024-03-22T12:06:14;9.90;;;5.38;;
44476;SDS011;30180;44.788;10.366;2024-03-22T12:08:43;8.10;;;5.57;;
44476;SDS011;30180;44.788;10.366;2024-03-22T12:11:10;8.95;;;5.82;;
44476;SDS011;30180;44.788;10.366;2024-03-22T12:13:37;10.52;;;6.00;;
44476;SDS011;30180;44.788;10.366;2024-03-22T12:16:05;10.93;;;5.10;;
44476;SDS011;30180;44.788;10.366;2024-03-22T12:18:33;10.40;;;5.78;;
44476;SDS011;30180;44.788;10.366;2024-03-22T12:21:00;8.88;;;5.47;;
44476;SDS011;30180;44.788;10.366;2024-03-22T12:23:27;10.05;;;5.18;;
44476;SDS011;30180;44.788;10.366;2024-03-22T12:25:56;13.27;;;5.93;;
44476;SDS011;30180;44.788;10.366;2024-03-22T12:28:23;11.05;;;6.10;;
44476;SDS011;30180;44.788;10.366;2024-03-22T12:30:50;13.48;;;5.32;;
44476;SDS011;30180;44.788;10.366;2024-03-22T12:33:17;10.13;;;5.97;;
44476;SDS011;30180;44.788;10.366;2024-03-22T12:35:45;7.72;;;5.03;;
44476;SDS011;30180;44.788;10.366;2024-03-22T12:38:13;8.27;;;5.18;;
44476;SDS011;30180;44.788;10.366;2024-03-22T12:40:41;9.88;;;5.40;;
44476;SDS011;30180;44.788;10.366;2024-03-22T12:43:09;12.27;;;5.97;;
44476;SDS011;30180;44.788;10.366;2024-03-22T12:45:38;14.20;;;6.78;;
44476;SDS011;30180;44.788;10.366;2024-03-22T12:48:05;12.27;;;7.75;;
44476;SDS011;30180;44.788;10.366;2024-03-22T12:50:33;13.98;;;8.45;;
44476;SDS011;30180;44.788;10.366;2024-03-22T12:53:00;14.55;;;8.32;;
44476;SDS011;30180;44.788;10.366;2024-03-22T12:55:30;18.77;;;9.23;;
44476;SDS011;30180;44.788;10.366;2024-03-22T12:57:57;20.15;;;9.57;;
44476;SDS011;30180;44.788;10.366;2024-03-22T13:00:25;19.02;;;9.27;;
44476;SDS011;30180;44.788;10.366;2024-03-22T13:02:52;15.30;;;8.30;;
44476;SDS011;30180;44.788;10.366;2024-03-22T13:05:20;15.70;;;8.52;;
44476;SDS011;30180;44.788;10.366;2024-03-22T13:07:46;19.10;;;8.52;;
44476;SDS011;30180;44.788;10.366;2024-03-22T13:10:13;15.95;;;8.70;;
44476;SDS011;30180;44.788;10.366;2024-03-22T13:12:40;14.75;;;8.38;;
44476;SDS011;30180;44.788;10.366;2024-03-22T13:15:08;15.82;;;7.82;;
44476;SDS011;30180;44.788;10.366;2024-03-22T13:17:36;13.70;;;7.78;;
44476;SDS011;30180;44.788;10.366;2024-03-22T13:20:04;12.85;;;7.95;;
44476;SDS011;30180;44.788;10.366;2024-03-22T13:22:36;15.88;;;8.00;;
44476;SDS011;30180;44.788;10.366;2024-03-22T13:25:04;18.88;;;8.02;;
44476;SDS011;30180;44.788;10.366;2024-03-22T13:27:33;13.10;;;8.38;;
44476;SDS011;30180;44.788;10.366;2024-03-22T13:30:00;13.93;;;7.47;;
44476;SDS011;30180;44.788;10.366;2024-03-22T13:32:27;14.73;;;7.78;;
44476;SDS011;30180;44.788;10.366;2024-03-22T13:34:56;12.10;;;6.90;;
44476;SDS011;30180;44.788;10.366;2024-03-22T13:37:22;14.52;;;7.78;;
44476;SDS011;30180;44.788;10.366;2024-03-22T13:39:50;15.55;;;8.40;;
44476;SDS011;30180;44.788;10.366;2024-03-22T13:42:16;14.80;;;7.68;;
44476;SDS011;30180;44.788;10.366;2024-03-22T13:44:45;16.52;;;6.95;;
44476;SDS011;30180;44.788;10.366;2024-03-22T13:47:11;18.77;;;7.07;;
44476;SDS011;30180;44.788;10.366;2024-03-22T13:49:39;13.80;;;7.68;;
44476;SDS011;30180;44.788;10.366;2024-03-22T13:52:08;14.23;;;7.05;;
44476;SDS011;30180;44.788;10.366;2024-03-22T13:54:35;14.27;;;7.40;;
44476;SDS011;30180;44.788;10.366;2024-03-22T13:57:02;13.63;;;6.97;;
44476;SDS011;30180;44.788;10.366;2024-03-22T13:59:30;26.25;;;7.72;;
44476;SDS011;30180;44.788;10.366;2024-03-22T14:01:57;15.38;;;7.32;;
44476;SDS011;30180;44.788;10.366;2024-03-22T14:04:24;16.92;;;7.93;;
44476;SDS011;30180;44.788;10.366;2024-03-22T14:06:51;15.40;;;8.63;;
44476;SDS011;30180;44.788;10.366;2024-03-22T14:09:21;15.93;;;9.45;;
44476;SDS011;30180;44.788;10.366;2024-03-22T14:11:47;17.38;;;9.60;;
44476;SDS011;30180;44.788;10.366;2024-03-22T14:14:15;17.92;;;9.60;;
44476;SDS011;30180;44.788;10.366;2024-03-22T14:16:41;20.05;;;9.85;;
44476;SDS011;30180;44.788;10.366;2024-03-22T14:19:09;14.55;;;8.25;;
44476;SDS011;30180;44.788;10.366;2024-03-22T14:21:36;13.60;;;8.50;;
44476;SDS011;30180;44.788;10.366;2024-03-22T14:24:04;14.95;;;8.60;;
44476;SDS011;30180;44.788;10.366;2024-03-22T14:26:33;19.50;;;9.00;;
44476;SDS011;30180;44.788;10.366;2024-03-22T14:29:00;15.70;;;8.88;;
44476;SDS011;30180;44.788;10.366;2024-03-22T14:31:26;19.10;;;9.02;;
44476;SDS011;30180;44.788;10.366;2024-03-22T14:33:54;18.10;;;9.93;;